sensor_id;sensor_type;location;lat;lon;timestamp;P1;durP1;ratioP1;P2;durP2;ratioP2
38162;SDS011;23977;53.078;18.248;2023-03-31T00:01:07;12.95;;;10.93;;
38162;SDS011;23977;53.078;18.248;2023-03-31T00:03:45;13.52;;;10.93;;
38162;SDS011;23977;53.078;18.248;2023-03-31T00:06:18;13.70;;;11.38;;
38162;SDS011;23977;53.078;18.248;2023-03-31T00:08:53;12.75;;;10.50;;
38162;SDS011;23977;53.078;18.248;2023-03-31T00:11:29;14.88;;;10.90;;
38162;SDS011;23977;53.078;18.248;2023-03-31T00:14:06;13.60;;;10.60;;
38162;SDS011;23977;53.078;18.248;2023-03-31T00:16:44;16.10;;;11.02;;
38162;SDS011;23977;53.078;18.248;2023-03-31T00:19:24;13.63;;;10.95;;
38162;SDS011;23977;53.078;18.248;2023-03-31T00:22:05;15.00;;;11.32;;
38162;SDS011;23977;53.078;18.248;2023-03-31T00:24:46;13.68;;;11.43;;
38162;SDS011;23977;53.078;18.248;2023-03-31T00:27:26;15.63;;;12.05;;
38162;SDS011;23977;53.078;18.248;2023-03-31T00:30:02;18.95;;;15.05;;
38162;SDS011;23977;53.078;18.248;2023-03-31T00:32:40;19.75;;;16.00;;
38162;SDS011;23977;53.078;18.248;2023-03-31T00:35:17;17.90;;;14.93;;
38162;SDS011;23977;53.078;18.248;2023-03-31T00:37:55;19.88;;;15.02;;
38162;SDS011;23977;53.078;18.248;2023-03-31T00:40:27;19.10;;;15.00;;
38162;SDS011;23977;53.078;18.248;2023-03-31T00:42:59;20.67;;;15.00;;
38162;SDS011;23977;53.078;18.248;2023-03-31T00:45:31;20.40;;;15.18;;
38162;SDS011;23977;53.078;18.248;2023-03-31T00:48:10;20.27;;;14.85;;
38162;SDS011;23977;53.078;18.248;2023-03-31T00:50:59;18.17;;;13.68;;
38162;SDS011;23977;53.078;18.248;2023-03-31T00:53:38;19.00;;;14.10;;
38162;SDS011;23977;53.078;18.248;2023-03-31T00:56:18;19.73;;;14.70;;
38162;SDS011;23977;53.078;18.248;2023-03-31T00:58:53;19.70;;;14.48;;
38162;SDS011;23977;53.078;18.248;2023-03-31T01:01:31;19.00;;;14.70;;
38162;SDS011;23977;53.078;18.248;2023-03-31T01:04:07;17.83;;;14.48;;
38162;SDS011;23977;53.078;18.248;2023-03-31T01:06:55;19.08;;;14.85;;
38162;SDS011;23977;53.078;18.248;2023-03-31T01:09:48;21.25;;;15.45;;
38162;SDS011;23977;53.078;18.248;2023-03-31T01:12:29;22.52;;;16.02;;
38162;SDS011;23977;53.078;18.248;2023-03-31T01:15:02;21.90;;;16.17;;
38162;SDS011;23977;53.078;18.248;2023-03-31T01:17:43;22.85;;;16.30;;
38162;SDS011;23977;53.078;18.248;2023-03-31T01:43:52;29.15;;;19.27;;
38162;SDS011;23977;53.078;18.248;2023-03-31T01:46:47;28.67;;;21.00;;
38162;SDS011;23977;53.078;18.248;2023-03-31T01:49:23;28.20;;;20.88;;
38162;SDS011;23977;53.078;18.248;2023-03-31T01:55:10;27.88;;;19.58;;
38162;SDS011;23977;53.078;18.248;2023-03-31T01:57:56;25.55;;;17.80;;
38162;SDS011;23977;53.078;18.248;2023-03-31T02:00:33;24.17;;;17.88;;
38162;SDS011;23977;53.078;18.248;2023-03-31T02:03:12;23.30;;;17.40;;
38162;SDS011;23977;53.078;18.248;2023-03-31T02:05:51;24.85;;;18.52;;
38162;SDS011;23977;53.078;18.248;2023-03-31T02:08:50;22.08;;;17.75;;
38162;SDS011;23977;53.078;18.248;2023-03-31T02:11:34;24.10;;;17.73;;
38162;SDS011;23977;53.078;18.248;2023-03-31T02:14:17;26.13;;;18.73;;
38162;SDS011;23977;53.078;18.248;2023-03-31T02:17:00;24.92;;;18.40;;
38162;SDS011;23977;53.078;18.248;2023-03-31T02:19:36;24.17;;;17.20;;
38162;SDS011;23977;53.078;18.248;2023-03-31T02:22:17;20.63;;;16.30;;
38162;SDS011;23977;53.078;18.248;2023-03-31T02:24:52;21.25;;;15.52;;
38162;SDS011;23977;53.078;18.248;2023-03-31T02:27:42;21.23;;;16.02;;
38162;SDS011;23977;53.078;18.248;2023-03-31T02:33:43;19.70;;;14.95;;
38162;SDS011;23977;53.078;18.248;2023-03-31T02:36:20;20.33;;;15.25;;
38162;SDS011;23977;53.078;18.248;2023-03-31T02:39:05;20.45;;;14.57;;
38162;SDS011;23977;53.078;18.248;2023-03-31T02:41:46;19.38;;;14.98;;
38162;SDS011;23977;53.078;18.248;2023-03-31T02:44:18;19.33;;;14.35;;
38162;SDS011;23977;53.078;18.248;2023-03-31T02:46:52;20.15;;;15.63;;
38162;SDS011;23977;53.078;18.248;2023-03-31T02:49:27;21.08;;;15.35;;
38162;SDS011;23977;53.078;18.248;2023-03-31T02:52:12;24.05;;;17.10;;
38162;SDS011;23977;53.078;18.248;2023-03-31T03:00:43;23.15;;;14.82;;
38162;SDS011;23977;53.078;18.248;2023-03-31T03:03:40;20.90;;;13.65;;
38162;SDS011;23977;53.078;18.248;2023-03-31T03:06:32;18.75;;;12.95;;
38162;SDS011;23977;53.078;18.248;2023-03-31T03:12:21;19.58;;;13.00;;
38162;SDS011;23977;53.078;18.248;2023-03-31T03:14:54;16.63;;;10.90;;
38162;SDS011;23977;53.078;18.248;2023-03-31T03:17:25;14.45;;;9.63;;
38162;SDS011;23977;53.078;18.248;2023-03-31T03:19:55;16.30;;;9.30;;
38162;SDS011;23977;53.078;18.248;2023-03-31T03:22:25;13.55;;;9.07;;
38162;SDS011;23977;53.078;18.248;2023-03-31T03:24:51;13.05;;;8.30;;
38162;SDS011;23977;53.078;18.248;2023-03-31T03:27:17;11.60;;;7.57;;
38162;SDS011;23977;53.078;18.248;2023-03-31T03:29:44;13.57;;;7.47;;
38162;SDS011;23977;53.078;18.248;2023-03-31T03:32:09;12.52;;;7.57;;
38162;SDS011;23977;53.078;18.248;2023-03-31T03:34:35;14.38;;;8.05;;
38162;SDS011;23977;53.078;18.248;2023-03-31T03:37:01;11.43;;;7.88;;
38162;SDS011;23977;53.078;18.248;2023-03-31T03:39:27;12.63;;;7.28;;
38162;SDS011;23977;53.078;18.248;2023-03-31T03:41:53;14.43;;;7.68;;
38162;SDS011;23977;53.078;18.248;2023-03-31T03:44:19;11.05;;;7.85;;
38162;SDS011;23977;53.078;18.248;2023-03-31T03:46:44;14.40;;;8.32;;
38162;SDS011;23977;53.078;18.248;2023-03-31T03:49:10;12.30;;;8.60;;
38162;SDS011;23977;53.078;18.248;2023-03-31T03:51:38;14.20;;;8.38;;
38162;SDS011;23977;53.078;18.248;2023-03-31T03:54:04;19.15;;;12.50;;
38162;SDS011;23977;53.078;18.248;2023-03-31T03:56:30;18.02;;;10.57;;
38162;SDS011;23977;53.078;18.248;2023-03-31T03:58:56;22.48;;;12.55;;
38162;SDS011;23977;53.078;18.248;2023-03-31T04:01:21;23.95;;;13.88;;
38162;SDS011;23977;53.078;18.248;2023-03-31T04:03:48;19.52;;;11.65;;
38162;SDS011;23977;53.078;18.248;2023-03-31T04:06:13;15.38;;;9.30;;
38162;SDS011;23977;53.078;18.248;2023-03-31T04:08:39;15.15;;;8.60;;
38162;SDS011;23977;53.078;18.248;2023-03-31T04:11:15;13.13;;;8.10;;
38162;SDS011;23977;53.078;18.248;2023-03-31T04:13:42;12.00;;;7.68;;
38162;SDS011;23977;53.078;18.248;2023-03-31T04:16:09;15.18;;;8.27;;
38162;SDS011;23977;53.078;18.248;2023-03-31T04:18:38;16.50;;;9.52;;
38162;SDS011;23977;53.078;18.248;2023-03-31T04:21:10;14.40;;;8.35;;
38162;SDS011;23977;53.078;18.248;2023-03-31T04:23:40;13.00;;;7.85;;
38162;SDS011;23977;53.078;18.248;2023-03-31T04:26:23;13.10;;;8.13;;
38162;SDS011;23977;53.078;18.248;2023-03-31T04:28:56;14.63;;;8.00;;
38162;SDS011;23977;53.078;18.248;2023-03-31T04:31:25;12.45;;;7.75;;
38162;SDS011;23977;53.078;18.248;2023-03-31T04:33:54;15.95;;;9.38;;
38162;SDS011;23977;53.078;18.248;2023-03-31T04:36:27;15.23;;;8.80;;
38162;SDS011;23977;53.078;18.248;2023-03-31T04:38:56;14.38;;;8.15;;
38162;SDS011;23977;53.078;18.248;2023-03-31T04:41:22;22.25;;;11.93;;
38162;SDS011;23977;53.078;18.248;2023-03-31T04:43:49;32.55;;;17.35;;
38162;SDS011;23977;53.078;18.248;2023-03-31T04:46:14;26.25;;;13.00;;
38162;SDS011;23977;53.078;18.248;2023-03-31T04:48:40;23.52;;;12.63;;
38162;SDS011;23977;53.078;18.248;2023-03-31T04:51:06;28.50;;;14.93;;
38162;SDS011;23977;53.078;18.248;2023-03-31T04:53:32;26.17;;;13.98;;
38162;SDS011;23977;53.078;18.248;2023-03-31T04:55:57;24.40;;;12.15;;
38162;SDS011;23977;53.078;18.248;2023-03-31T04:58:23;20.25;;;10.57;;
38162;SDS011;23977;53.078;18.248;2023-03-31T05:00:50;18.98;;;10.57;;
38162;SDS011;23977;53.078;18.248;2023-03-31T05:03:16;20.42;;;10.68;;
38162;SDS011;23977;53.078;18.248;2023-03-31T05:05:42;18.33;;;9.77;;
38162;SDS011;23977;53.078;18.248;2023-03-31T05:08:07;17.75;;;9.50;;
38162;SDS011;23977;53.078;18.248;2023-03-31T05:10:33;14.57;;;8.30;;
38162;SDS011;23977;53.078;18.248;2023-03-31T05:12:59;16.55;;;9.02;;
38162;SDS011;23977;53.078;18.248;2023-03-31T05:15:24;16.55;;;9.60;;
38162;SDS011;23977;53.078;18.248;2023-03-31T05:17:50;16.02;;;9.57;;
38162;SDS011;23977;53.078;18.248;2023-03-31T05:20:16;15.13;;;8.50;;
38162;SDS011;23977;53.078;18.248;2023-03-31T05:22:44;13.80;;;8.50;;
38162;SDS011;23977;53.078;18.248;2023-03-31T05:25:11;13.20;;;8.75;;
38162;SDS011;23977;53.078;18.248;2023-03-31T05:27:43;13.82;;;8.02;;
38162;SDS011;23977;53.078;18.248;2023-03-31T05:30:11;14.68;;;8.45;;
38162;SDS011;23977;53.078;18.248;2023-03-31T05:32:38;15.52;;;9.15;;
38162;SDS011;23977;53.078;18.248;2023-03-31T05:35:04;14.70;;;7.80;;
38162;SDS011;23977;53.078;18.248;2023-03-31T05:37:30;12.02;;;7.53;;
38162;SDS011;23977;53.078;18.248;2023-03-31T05:39:55;12.85;;;7.47;;
38162;SDS011;23977;53.078;18.248;2023-03-31T05:42:21;13.38;;;7.65;;
38162;SDS011;23977;53.078;18.248;2023-03-31T05:44:47;14.02;;;8.30;;
38162;SDS011;23977;53.078;18.248;2023-03-31T05:47:13;15.88;;;9.30;;
38162;SDS011;23977;53.078;18.248;2023-03-31T05:49:39;18.80;;;9.65;;
38162;SDS011;23977;53.078;18.248;2023-03-31T05:52:05;17.17;;;9.57;;
38162;SDS011;23977;53.078;18.248;2023-03-31T05:54:32;16.10;;;9.00;;
38162;SDS011;23977;53.078;18.248;2023-03-31T05:56:57;15.63;;;9.23;;
38162;SDS011;23977;53.078;18.248;2023-03-31T05:59:23;14.40;;;8.30;;
38162;SDS011;23977;53.078;18.248;2023-03-31T06:01:49;12.30;;;7.47;;
38162;SDS011;23977;53.078;18.248;2023-03-31T06:04:14;21.98;;;12.13;;
38162;SDS011;23977;53.078;18.248;2023-03-31T06:06:42;27.05;;;13.68;;
38162;SDS011;23977;53.078;18.248;2023-03-31T06:09:10;36.50;;;18.52;;
38162;SDS011;23977;53.078;18.248;2023-03-31T06:11:36;30.92;;;16.65;;
38162;SDS011;23977;53.078;18.248;2023-03-31T06:14:03;25.88;;;11.52;;
38162;SDS011;23977;53.078;18.248;2023-03-31T06:16:29;18.20;;;9.65;;
38162;SDS011;23977;53.078;18.248;2023-03-31T06:18:55;17.05;;;9.00;;
38162;SDS011;23977;53.078;18.248;2023-03-31T06:21:21;19.75;;;11.15;;
38162;SDS011;23977;53.078;18.248;2023-03-31T06:23:47;19.65;;;9.40;;
38162;SDS011;23977;53.078;18.248;2023-03-31T06:26:14;13.20;;;7.60;;
38162;SDS011;23977;53.078;18.248;2023-03-31T06:28:41;13.35;;;7.05;;
38162;SDS011;23977;53.078;18.248;2023-03-31T06:31:12;12.52;;;7.70;;
38162;SDS011;23977;53.078;18.248;2023-03-31T06:33:40;14.15;;;7.75;;
38162;SDS011;23977;53.078;18.248;2023-03-31T06:36:07;12.40;;;6.80;;
38162;SDS011;23977;53.078;18.248;2023-03-31T06:38:34;13.82;;;8.25;;
38162;SDS011;23977;53.078;18.248;2023-03-31T06:41:03;11.38;;;6.22;;
38162;SDS011;23977;53.078;18.248;2023-03-31T06:43:29;12.02;;;6.47;;
38162;SDS011;23977;53.078;18.248;2023-03-31T06:45:55;10.77;;;6.40;;
38162;SDS011;23977;53.078;18.248;2023-03-31T06:48:21;9.80;;;5.93;;
38162;SDS011;23977;53.078;18.248;2023-03-31T06:50:48;9.27;;;5.53;;
38162;SDS011;23977;53.078;18.248;2023-03-31T06:53:14;9.88;;;5.22;;
38162;SDS011;23977;53.078;18.248;2023-03-31T06:55:39;8.10;;;5.25;;
38162;SDS011;23977;53.078;18.248;2023-03-31T06:58:05;8.77;;;5.13;;
38162;SDS011;23977;53.078;18.248;2023-03-31T07:00:31;8.98;;;5.03;;
38162;SDS011;23977;53.078;18.248;2023-03-31T07:02:57;7.60;;;4.68;;
38162;SDS011;23977;53.078;18.248;2023-03-31T07:05:23;8.25;;;5.20;;
38162;SDS011;23977;53.078;18.248;2023-03-31T07:07:53;9.73;;;5.13;;
38162;SDS011;23977;53.078;18.248;2023-03-31T07:10:20;8.80;;;5.10;;
38162;SDS011;23977;53.078;18.248;2023-03-31T07:12:47;8.77;;;5.32;;
38162;SDS011;23977;53.078;18.248;2023-03-31T07:15:13;8.70;;;5.32;;
38162;SDS011;23977;53.078;18.248;2023-03-31T07:17:38;10.82;;;5.72;;
38162;SDS011;23977;53.078;18.248;2023-03-31T07:20:09;10.60;;;6.00;;
38162;SDS011;23977;53.078;18.248;2023-03-31T07:22:37;10.57;;;5.40;;
38162;SDS011;23977;53.078;18.248;2023-03-31T07:25:03;9.20;;;4.65;;
38162;SDS011;23977;53.078;18.248;2023-03-31T07:27:29;9.02;;;5.40;;
38162;SDS011;23977;53.078;18.248;2023-03-31T07:29:55;9.43;;;4.97;;
38162;SDS011;23977;53.078;18.248;2023-03-31T07:32:21;9.50;;;5.30;;
38162;SDS011;23977;53.078;18.248;2023-03-31T07:34:47;8.75;;;5.38;;
38162;SDS011;23977;53.078;18.248;2023-03-31T07:37:13;10.50;;;5.22;;
38162;SDS011;23977;53.078;18.248;2023-03-31T07:39:39;9.77;;;4.85;;
38162;SDS011;23977;53.078;18.248;2023-03-31T07:42:04;8.52;;;4.82;;
38162;SDS011;23977;53.078;18.248;2023-03-31T07:44:32;8.75;;;4.90;;
38162;SDS011;23977;53.078;18.248;2023-03-31T07:47:01;9.48;;;5.10;;
38162;SDS011;23977;53.078;18.248;2023-03-31T07:49:29;8.82;;;4.82;;
38162;SDS011;23977;53.078;18.248;2023-03-31T07:51:55;8.30;;;4.70;;
38162;SDS011;23977;53.078;18.248;2023-03-31T07:54:21;7.15;;;4.30;;
38162;SDS011;23977;53.078;18.248;2023-03-31T07:56:46;13.18;;;8.20;;
38162;SDS011;23977;53.078;18.248;2023-03-31T07:59:12;11.10;;;7.20;;
38162;SDS011;23977;53.078;18.248;2023-03-31T08:01:38;9.05;;;5.45;;
38162;SDS011;23977;53.078;18.248;2023-03-31T08:04:04;8.23;;;4.53;;
38162;SDS011;23977;53.078;18.248;2023-03-31T08:06:29;13.15;;;6.47;;
38162;SDS011;23977;53.078;18.248;2023-03-31T08:08:55;15.75;;;7.78;;
38162;SDS011;23977;53.078;18.248;2023-03-31T08:11:22;19.38;;;12.35;;
38162;SDS011;23977;53.078;18.248;2023-03-31T08:13:49;10.10;;;5.80;;
38162;SDS011;23977;53.078;18.248;2023-03-31T08:16:15;23.80;;;11.05;;
38162;SDS011;23977;53.078;18.248;2023-03-31T08:18:40;20.63;;;9.32;;
38162;SDS011;23977;53.078;18.248;2023-03-31T08:21:06;10.43;;;5.30;;
38162;SDS011;23977;53.078;18.248;2023-03-31T08:23:36;8.00;;;4.32;;
38162;SDS011;23977;53.078;18.248;2023-03-31T08:26:12;12.10;;;6.88;;
38162;SDS011;23977;53.078;18.248;2023-03-31T08:28:42;7.22;;;3.85;;
38162;SDS011;23977;53.078;18.248;2023-03-31T08:31:08;8.95;;;4.10;;
38162;SDS011;23977;53.078;18.248;2023-03-31T08:33:35;10.57;;;5.68;;
38162;SDS011;23977;53.078;18.248;2023-03-31T08:36:05;8.88;;;4.78;;
38162;SDS011;23977;53.078;18.248;2023-03-31T08:38:33;9.23;;;5.60;;
38162;SDS011;23977;53.078;18.248;2023-03-31T08:41:02;8.98;;;4.30;;
38162;SDS011;23977;53.078;18.248;2023-03-31T08:43:31;8.63;;;3.92;;
38162;SDS011;23977;53.078;18.248;2023-03-31T08:45:59;6.47;;;3.40;;
38162;SDS011;23977;53.078;18.248;2023-03-31T08:48:37;9.25;;;3.22;;
38162;SDS011;23977;53.078;18.248;2023-03-31T08:51:14;6.68;;;2.85;;
38162;SDS011;23977;53.078;18.248;2023-03-31T08:53:47;6.13;;;3.28;;
38162;SDS011;23977;53.078;18.248;2023-03-31T09:06:41;11.10;;;4.70;;
38162;SDS011;23977;53.078;18.248;2023-03-31T09:09:17;7.45;;;3.65;;
38162;SDS011;23977;53.078;18.248;2023-03-31T09:11:52;8.98;;;3.97;;
38162;SDS011;23977;53.078;18.248;2023-03-31T09:14:31;7.00;;;3.40;;
38162;SDS011;23977;53.078;18.248;2023-03-31T09:20:00;8.32;;;3.60;;
38162;SDS011;23977;53.078;18.248;2023-03-31T09:22:37;6.82;;;3.42;;
38162;SDS011;23977;53.078;18.248;2023-03-31T09:25:15;7.60;;;3.50;;
38162;SDS011;23977;53.078;18.248;2023-03-31T09:27:45;7.25;;;3.88;;
38162;SDS011;23977;53.078;18.248;2023-03-31T09:32:42;6.47;;;3.50;;
38162;SDS011;23977;53.078;18.248;2023-03-31T09:35:21;7.60;;;3.80;;
38162;SDS011;23977;53.078;18.248;2023-03-31T09:37:53;10.45;;;4.13;;
38162;SDS011;23977;53.078;18.248;2023-03-31T09:40:22;8.05;;;4.05;;
38162;SDS011;23977;53.078;18.248;2023-03-31T09:42:54;8.75;;;3.65;;
38162;SDS011;23977;53.078;18.248;2023-03-31T09:45:26;8.00;;;3.45;;
38162;SDS011;23977;53.078;18.248;2023-03-31T09:47:53;8.23;;;3.60;;
38162;SDS011;23977;53.078;18.248;2023-03-31T09:50:21;6.53;;;3.10;;
38162;SDS011;23977;53.078;18.248;2023-03-31T09:52:49;6.53;;;3.25;;
38162;SDS011;23977;53.078;18.248;2023-03-31T09:57:48;8.10;;;3.25;;
38162;SDS011;23977;53.078;18.248;2023-03-31T10:00:15;9.02;;;3.95;;
38162;SDS011;23977;53.078;18.248;2023-03-31T10:02:51;8.82;;;3.45;;
38162;SDS011;23977;53.078;18.248;2023-03-31T10:05:30;8.82;;;3.60;;
38162;SDS011;23977;53.078;18.248;2023-03-31T10:08:20;9.27;;;3.53;;
38162;SDS011;23977;53.078;18.248;2023-03-31T10:10:52;10.00;;;3.95;;
38162;SDS011;23977;53.078;18.248;2023-03-31T10:13:40;9.98;;;3.47;;
38162;SDS011;23977;53.078;18.248;2023-03-31T10:16:13;9.55;;;3.45;;
38162;SDS011;23977;53.078;18.248;2023-03-31T10:19:12;7.90;;;3.53;;
38162;SDS011;23977;53.078;18.248;2023-03-31T10:21:48;8.32;;;3.60;;
38162;SDS011;23977;53.078;18.248;2023-03-31T10:24:40;9.05;;;3.60;;
38162;SDS011;23977;53.078;18.248;2023-03-31T10:27:23;10.30;;;3.67;;
38162;SDS011;23977;53.078;18.248;2023-03-31T10:29:55;8.80;;;3.50;;
38162;SDS011;23977;53.078;18.248;2023-03-31T10:34:50;8.02;;;3.15;;
38162;SDS011;23977;53.078;18.248;2023-03-31T10:37:17;9.52;;;3.45;;
38162;SDS011;23977;53.078;18.248;2023-03-31T10:39:47;9.52;;;3.50;;
38162;SDS011;23977;53.078;18.248;2023-03-31T10:42:20;8.70;;;3.28;;
38162;SDS011;23977;53.078;18.248;2023-03-31T10:44:47;8.23;;;3.53;;
38162;SDS011;23977;53.078;18.248;2023-03-31T10:47:17;9.63;;;3.35;;
38162;SDS011;23977;53.078;18.248;2023-03-31T10:49:47;7.65;;;3.38;;
38162;SDS011;23977;53.078;18.248;2023-03-31T10:52:18;10.30;;;3.60;;
38162;SDS011;23977;53.078;18.248;2023-03-31T10:54:50;9.25;;;3.80;;
38162;SDS011;23977;53.078;18.248;2023-03-31T10:57:21;8.73;;;3.53;;
38162;SDS011;23977;53.078;18.248;2023-03-31T11:02:41;9.95;;;3.30;;
38162;SDS011;23977;53.078;18.248;2023-03-31T11:11:09;9.10;;;3.80;;
38162;SDS011;23977;53.078;18.248;2023-03-31T11:14:00;10.18;;;3.60;;
38162;SDS011;23977;53.078;18.248;2023-03-31T11:19:35;6.80;;;2.92;;
38162;SDS011;23977;53.078;18.248;2023-03-31T11:27:36;9.43;;;3.00;;
38162;SDS011;23977;53.078;18.248;2023-03-31T11:32:42;8.55;;;3.22;;
38162;SDS011;23977;53.078;18.248;2023-03-31T11:38:04;9.02;;;4.20;;
38162;SDS011;23977;53.078;18.248;2023-03-31T11:40:44;9.13;;;3.60;;
38162;SDS011;23977;53.078;18.248;2023-03-31T11:43:23;8.63;;;3.13;;
38162;SDS011;23977;53.078;18.248;2023-03-31T11:46:00;7.90;;;2.72;;
38162;SDS011;23977;53.078;18.248;2023-03-31T11:48:40;7.38;;;3.15;;
38162;SDS011;23977;53.078;18.248;2023-03-31T11:51:17;8.73;;;3.20;;
38162;SDS011;23977;53.078;18.248;2023-03-31T11:53:48;7.07;;;2.92;;
38162;SDS011;23977;53.078;18.248;2023-03-31T11:56:18;6.85;;;2.85;;
38162;SDS011;23977;53.078;18.248;2023-03-31T11:58:53;6.95;;;2.90;;
38162;SDS011;23977;53.078;18.248;2023-03-31T12:07:03;8.05;;;2.90;;
38162;SDS011;23977;53.078;18.248;2023-03-31T12:12:30;9.77;;;3.50;;
38162;SDS011;23977;53.078;18.248;2023-03-31T12:15:10;6.68;;;2.70;;
38162;SDS011;23977;53.078;18.248;2023-03-31T12:17:42;8.38;;;3.45;;
38162;SDS011;23977;53.078;18.248;2023-03-31T12:20:16;7.43;;;3.17;;
38162;SDS011;23977;53.078;18.248;2023-03-31T12:22:50;9.43;;;3.53;;
38162;SDS011;23977;53.078;18.248;2023-03-31T12:25:18;6.93;;;3.17;;
38162;SDS011;23977;53.078;18.248;2023-03-31T12:27:50;7.60;;;3.10;;
38162;SDS011;23977;53.078;18.248;2023-03-31T12:30:21;8.38;;;3.30;;
38162;SDS011;23977;53.078;18.248;2023-03-31T12:32:53;7.60;;;2.70;;
38162;SDS011;23977;53.078;18.248;2023-03-31T12:41:02;6.18;;;2.80;;
38162;SDS011;23977;53.078;18.248;2023-03-31T12:49:20;6.28;;;3.22;;
38162;SDS011;23977;53.078;18.248;2023-03-31T12:51:58;6.78;;;3.08;;
38162;SDS011;23977;53.078;18.248;2023-03-31T12:57:22;11.07;;;4.18;;
38162;SDS011;23977;53.078;18.248;2023-03-31T13:00:32;8.20;;;3.67;;
38162;SDS011;23977;53.078;18.248;2023-03-31T13:02:46;7.68;;;3.17;;
38162;SDS011;23977;53.078;18.248;2023-03-31T13:08:03;8.20;;;4.68;;
38162;SDS011;23977;53.078;18.248;2023-03-31T13:10:31;7.75;;;3.40;;
38162;SDS011;23977;53.078;18.248;2023-03-31T13:15:26;7.40;;;3.55;;
38162;SDS011;23977;53.078;18.248;2023-03-31T13:17:56;7.32;;;3.13;;
38162;SDS011;23977;53.078;18.248;2023-03-31T13:23:01;7.05;;;3.10;;
38162;SDS011;23977;53.078;18.248;2023-03-31T13:33:27;8.15;;;3.30;;
38162;SDS011;23977;53.078;18.248;2023-03-31T13:47:31;7.53;;;3.10;;
38162;SDS011;23977;53.078;18.248;2023-03-31T13:53:07;8.02;;;2.95;;
38162;SDS011;23977;53.078;18.248;2023-03-31T14:02:22;6.97;;;3.33;;
38162;SDS011;23977;53.078;18.248;2023-03-31T14:07:52;7.22;;;3.20;;
38162;SDS011;23977;53.078;18.248;2023-03-31T14:10:32;9.23;;;3.35;;
38162;SDS011;23977;53.078;18.248;2023-03-31T14:13:11;6.90;;;3.10;;
38162;SDS011;23977;53.078;18.248;2023-03-31T14:15:40;7.85;;;3.05;;
38162;SDS011;23977;53.078;18.248;2023-03-31T14:18:31;7.40;;;2.90;;
38162;SDS011;23977;53.078;18.248;2023-03-31T14:23:54;9.40;;;4.30;;
38162;SDS011;23977;53.078;18.248;2023-03-31T14:26:48;8.55;;;4.35;;
38162;SDS011;23977;53.078;18.248;2023-03-31T14:35:49;10.18;;;4.95;;
38162;SDS011;23977;53.078;18.248;2023-03-31T14:38:34;10.10;;;5.10;;
38162;SDS011;23977;53.078;18.248;2023-03-31T14:41:00;15.57;;;5.57;;
38162;SDS011;23977;53.078;18.248;2023-03-31T14:43:27;13.48;;;7.15;;
38162;SDS011;23977;53.078;18.248;2023-03-31T14:46:04;12.40;;;6.85;;
38162;SDS011;23977;53.078;18.248;2023-03-31T14:48:32;9.82;;;4.97;;
38162;SDS011;23977;53.078;18.248;2023-03-31T14:51:01;9.40;;;5.53;;
38162;SDS011;23977;53.078;18.248;2023-03-31T14:53:27;9.63;;;4.95;;
38162;SDS011;23977;53.078;18.248;2023-03-31T14:55:56;9.35;;;4.70;;
38162;SDS011;23977;53.078;18.248;2023-03-31T14:58:31;9.07;;;4.55;;
38162;SDS011;23977;53.078;18.248;2023-03-31T15:00:59;8.95;;;4.55;;
38162;SDS011;23977;53.078;18.248;2023-03-31T15:03:28;9.30;;;3.40;;
38162;SDS011;23977;53.078;18.248;2023-03-31T15:05:58;6.97;;;2.80;;
38162;SDS011;23977;53.078;18.248;2023-03-31T15:08:26;7.43;;;2.90;;
38162;SDS011;23977;53.078;18.248;2023-03-31T15:10:55;8.05;;;2.80;;
38162;SDS011;23977;53.078;18.248;2023-03-31T15:13:42;6.43;;;2.72;;
38162;SDS011;23977;53.078;18.248;2023-03-31T15:19:01;5.80;;;2.88;;
38162;SDS011;23977;53.078;18.248;2023-03-31T15:21:35;5.70;;;2.70;;
38162;SDS011;23977;53.078;18.248;2023-03-31T15:24:02;6.72;;;3.25;;
38162;SDS011;23977;53.078;18.248;2023-03-31T15:26:31;7.35;;;3.55;;
38162;SDS011;23977;53.078;18.248;2023-03-31T15:29:06;7.50;;;3.00;;
38162;SDS011;23977;53.078;18.248;2023-03-31T15:31:36;6.88;;;3.08;;
38162;SDS011;23977;53.078;18.248;2023-03-31T15:34:18;6.18;;;3.03;;
38162;SDS011;23977;53.078;18.248;2023-03-31T15:36:47;9.25;;;3.70;;
38162;SDS011;23977;53.078;18.248;2023-03-31T15:39:13;7.38;;;3.35;;
38162;SDS011;23977;53.078;18.248;2023-03-31T15:41:39;6.82;;;3.90;;
38162;SDS011;23977;53.078;18.248;2023-03-31T15:44:10;8.45;;;3.67;;
38162;SDS011;23977;53.078;18.248;2023-03-31T15:49:47;7.55;;;3.55;;
38162;SDS011;23977;53.078;18.248;2023-03-31T15:52:22;9.05;;;4.10;;
38162;SDS011;23977;53.078;18.248;2023-03-31T15:54:53;9.82;;;3.80;;
38162;SDS011;23977;53.078;18.248;2023-03-31T15:57:19;9.95;;;4.43;;
38162;SDS011;23977;53.078;18.248;2023-03-31T15:59:49;7.95;;;4.40;;
38162;SDS011;23977;53.078;18.248;2023-03-31T16:02:19;11.75;;;5.10;;
38162;SDS011;23977;53.078;18.248;2023-03-31T16:04:49;11.00;;;4.80;;
38162;SDS011;23977;53.078;18.248;2023-03-31T16:07:25;9.48;;;4.65;;
38162;SDS011;23977;53.078;18.248;2023-03-31T16:09:57;10.40;;;4.68;;
38162;SDS011;23977;53.078;18.248;2023-03-31T16:15:02;10.70;;;5.10;;
38162;SDS011;23977;53.078;18.248;2023-03-31T16:17:36;11.23;;;5.68;;
38162;SDS011;23977;53.078;18.248;2023-03-31T16:20:18;20.90;;;14.90;;
38162;SDS011;23977;53.078;18.248;2023-03-31T16:22:48;30.30;;;23.48;;
38162;SDS011;23977;53.078;18.248;2023-03-31T16:25:22;20.13;;;12.07;;
38162;SDS011;23977;53.078;18.248;2023-03-31T16:27:50;14.98;;;8.55;;
38162;SDS011;23977;53.078;18.248;2023-03-31T16:30:36;13.38;;;7.35;;
38162;SDS011;23977;53.078;18.248;2023-03-31T16:35:41;11.88;;;5.47;;
38162;SDS011;23977;53.078;18.248;2023-03-31T16:38:09;10.40;;;5.65;;
38162;SDS011;23977;53.078;18.248;2023-03-31T16:40:37;11.25;;;5.30;;
38162;SDS011;23977;53.078;18.248;2023-03-31T16:43:10;10.00;;;5.38;;
38162;SDS011;23977;53.078;18.248;2023-03-31T16:46:00;10.52;;;5.78;;
38162;SDS011;23977;53.078;18.248;2023-03-31T16:48:30;11.27;;;5.90;;
38162;SDS011;23977;53.078;18.248;2023-03-31T16:50:59;10.68;;;5.68;;
38162;SDS011;23977;53.078;18.248;2023-03-31T16:53:27;9.88;;;5.60;;
38162;SDS011;23977;53.078;18.248;2023-03-31T16:55:54;12.15;;;6.10;;
38162;SDS011;23977;53.078;18.248;2023-03-31T16:58:20;11.05;;;6.60;;
38162;SDS011;23977;53.078;18.248;2023-03-31T17:00:48;10.15;;;6.10;;
38162;SDS011;23977;53.078;18.248;2023-03-31T17:03:15;13.50;;;6.45;;
38162;SDS011;23977;53.078;18.248;2023-03-31T17:05:41;14.73;;;8.80;;
38162;SDS011;23977;53.078;18.248;2023-03-31T17:08:10;12.02;;;7.78;;
38162;SDS011;23977;53.078;18.248;2023-03-31T17:10:36;13.20;;;7.72;;
38162;SDS011;23977;53.078;18.248;2023-03-31T17:13:04;13.20;;;7.43;;
38162;SDS011;23977;53.078;18.248;2023-03-31T17:15:29;15.20;;;7.90;;
38162;SDS011;23977;53.078;18.248;2023-03-31T17:17:56;13.20;;;7.53;;
38162;SDS011;23977;53.078;18.248;2023-03-31T17:20:25;14.82;;;8.85;;
38162;SDS011;23977;53.078;18.248;2023-03-31T17:22:52;16.40;;;9.38;;
38162;SDS011;23977;53.078;18.248;2023-03-31T17:25:18;18.10;;;9.85;;
38162;SDS011;23977;53.078;18.248;2023-03-31T17:27:44;17.13;;;9.60;;
38162;SDS011;23977;53.078;18.248;2023-03-31T17:30:09;17.00;;;9.70;;
38162;SDS011;23977;53.078;18.248;2023-03-31T17:32:36;13.20;;;9.20;;
38162;SDS011;23977;53.078;18.248;2023-03-31T17:35:02;12.40;;;8.95;;